Time;durP1;ratioP1;P1;durP2;ratioP2;P2;SDS_P1;SDS_P2;PMS_P1;PMS_P2;Temp;Humidity;BMP_temperature;BMP_pressure;BME280_temperature;BME280_humidity;BME280_pressure;Samples;Min_cycle;Max_cycle;Signal;HPM_P1;HPM_P2
2021/01/24 00:01:38;;;;;;;5.30;4.77;;;2.50;99.90;;;;;;5033525;28;20186;-68
2021/01/24 00:04:04;;;;;;;3.83;3.43;;;2.50;99.90;;;;;;5033364;28;20550;-69
2021/01/24 00:06:29;;;;;;;5.33;4.17;;;2.40;99.90;;;;;;5032937;28;20194;-69
2021/01/24 00:08:55;;;;;;;4.03;3.60;;;2.40;99.90;;;;;;5033255;28;20269;-70
2021/01/24 00:11:22;;;;;;;3.77;3.47;;;2.40;99.90;;;;;;5033189;28;20726;-68
2021/01/24 00:13:47;;;;;;;4.00;3.60;;;2.40;99.90;;;;;;5015355;28;20657;-68
2021/01/24 00:16:13;;;;;;;3.53;3.23;;;2.40;99.90;;;;;;5032551;28;20436;-69
2021/01/24 00:18:38;;;;;;;4.47;3.60;;;2.40;99.90;;;;;;5033075;28;20224;-68
2021/01/24 00:21:04;;;;;;;4.13;3.50;;;2.40;99.90;;;;;;5033031;28;20661;-69
2021/01/24 00:23:29;;;;;;;4.10;3.70;;;2.40;99.90;;;;;;5032327;28;20210;-68
2021/01/24 00:25:55;;;;;;;3.30;3.00;;;2.40;99.90;;;;;;5032188;28;20186;-70
2021/01/24 00:28:21;;;;;;;3.67;3.37;;;2.40;99.90;;;;;;5014816;28;20198;-68
2021/01/24 00:30:48;;;;;;;3.27;3.00;;;2.30;99.90;;;;;;5032243;28;20228;-70
2021/01/24 00:33:13;;;;;;;3.50;3.20;;;2.30;99.90;;;;;;5014830;28;20975;-69
2021/01/24 00:35:39;;;;;;;3.87;3.50;;;2.30;99.90;;;;;;5032154;28;20429;-69
2021/01/24 00:38:04;;;;;;;4.07;3.10;;;2.20;99.90;;;;;;5032376;28;20454;-69
2021/01/24 00:40:30;;;;;;;2.97;2.73;;;2.20;99.90;;;;;;5032151;28;20198;-68
2021/01/24 00:42:56;;;;;;;3.30;3.10;;;2.20;99.90;;;;;;5031229;28;20179;-70
2021/01/24 00:45:21;;;;;;;3.50;3.20;;;2.20;99.90;;;;;;5031787;28;20189;-68
2021/01/24 00:47:47;;;;;;;3.13;2.90;;;2.20;99.90;;;;;;5032131;28;20194;-68
2021/01/24 00:50:13;;;;;;;3.63;3.33;;;2.20;99.90;;;;;;5032241;28;20221;-68
2021/01/24 00:52:38;;;;;;;3.83;3.53;;;2.20;99.90;;;;;;5031850;28;20570;-69
2021/01/24 00:55:04;;;;;;;2.90;2.70;;;2.20;99.90;;;;;;5031707;28;20464;-69
2021/01/24 00:57:30;;;;;;;4.63;3.17;;;2.20;99.90;;;;;;5031896;28;20186;-69
2021/01/24 00:59:55;;;;;;;2.93;2.63;;;2.20;99.90;;;;;;5031688;28;20432;-69
2021/01/24 01:02:21;;;;;;;4.10;3.80;;;2.20;99.90;;;;;;5031659;28;20653;-70
2021/01/24 01:04:46;;;;;;;3.13;2.90;;;2.20;99.90;;;;;;5032116;28;20178;-68
2021/01/24 01:07:12;;;;;;;3.17;2.70;;;2.20;99.90;;;;;;5031274;28;20681;-69
2021/01/24 01:09:37;;;;;;;2.50;2.30;;;2.20;99.90;;;;;;5031664;28;20182;-69
2021/01/24 01:12:04;;;;;;;1.97;1.87;;;2.30;99.90;;;;;;5031973;28;20234;-68
2021/01/24 01:14:30;;;;;;;5.43;4.03;;;2.30;99.90;;;;;;5031738;28;20414;-69
2021/01/24 01:16:55;;;;;;;3.03;2.77;;;2.30;99.90;;;;;;5031195;28;20453;-69
2021/01/24 01:19:21;;;;;;;2.30;2.10;;;2.30;99.90;;;;;;5031591;28;20253;-68
2021/01/24 01:21:46;;;;;;;2.70;2.50;;;2.30;99.90;;;;;;5013937;28;20178;-69
2021/01/24 01:24:12;;;;;;;4.37;2.97;;;2.30;99.90;;;;;;5031514;28;20197;-69
2021/01/24 01:26:37;;;;;;;3.37;2.73;;;2.30;99.90;;;;;;5030975;28;20613;-68
2021/01/24 01:29:03;;;;;;;3.93;3.60;;;2.20;99.90;;;;;;5031452;28;20186;-68
2021/01/24 01:31:28;;;;;;;3.63;3.33;;;2.20;99.90;;;;;;5031099;28;20662;-70
2021/01/24 01:33:54;;;;;;;4.03;3.70;;;2.20;99.90;;;;;;5031513;28;20229;-69
2021/01/24 01:36:19;;;;;;;3.50;3.10;;;2.20;99.90;;;;;;5031391;28;20222;-70
2021/01/24 01:38:45;;;;;;;4.33;3.93;;;2.10;99.90;;;;;;5031571;28;20636;-69
2021/01/24 01:41:11;;;;;;;4.13;3.83;;;2.10;99.90;;;;;;5031149;28;20182;-69
2021/01/24 01:43:36;;;;;;;4.13;3.73;;;2.10;99.90;;;;;;5031941;28;20178;-70
2021/01/24 01:46:02;;;;;;;5.43;4.63;;;2.10;99.90;;;;;;5030921;28;20185;-68
2021/01/24 01:48:29;;;;;;;5.03;4.20;;;2.00;99.90;;;;;;5023145;28;20672;-68
2021/01/24 01:50:56;;;;;;;7.10;5.97;;;2.00;99.90;;;;;;5031115;28;20433;-70
2021/01/24 01:53:22;;;;;;;4.57;4.07;;;2.00;99.90;;;;;;5030885;28;20482;-68
2021/01/24 01:55:47;;;;;;;5.80;4.13;;;2.00;99.90;;;;;;5030297;28;20433;-69
2021/01/24 01:58:13;;;;;;;4.57;4.17;;;2.00;99.90;;;;;;5031102;28;20202;-69
2021/01/24 02:00:39;;;;;;;3.53;3.23;;;2.10;99.90;;;;;;5031095;28;20173;-69
2021/01/24 02:03:30;;;;;;;4.07;3.73;;;2.20;99.90;;;;;;5031535;28;20175;-69
2021/01/24 02:06:12;;;;;;;3.57;3.27;;;2.20;99.90;;;;;;5027868;28;20204;-68
2021/01/24 02:08:45;;;;;;;2.60;2.40;;;2.10;99.90;;;;;;5030607;28;20429;-70
2021/01/24 02:11:20;;;;;;;3.30;2.37;;;2.10;99.90;;;;;;5030473;28;20826;-68
2021/01/24 02:13:53;;;;;;;2.50;2.30;;;2.00;99.90;;;;;;5018704;28;20424;-70
2021/01/24 02:16:20;;;;;;;3.60;2.50;;;2.00;99.90;;;;;;5030144;28;20425;-68
2021/01/24 02:18:47;;;;;;;1.97;1.77;;;2.10;99.90;;;;;;5030875;28;20612;-70
2021/01/24 02:21:28;;;;;;;1.67;1.57;;;2.10;99.90;;;;;;5030962;28;20433;-69
2021/01/24 02:23:58;;;;;;;1.83;1.57;;;2.10;99.90;;;;;;5029955;28;20439;-69
2021/01/24 02:26:53;;;;;;;2.40;1.20;;;2.10;99.90;;;;;;5030399;28;20436;-69
2021/01/24 02:29:31;;;;;;;1.30;1.20;;;2.20;99.90;;;;;;5030474;28;20927;-69
2021/01/24 02:32:00;;;;;;;0.80;0.80;;;2.10;99.90;;;;;;5029837;28;20980;-69
2021/01/24 02:34:30;;;;;;;0.90;0.90;;;2.10;99.90;;;;;;5030586;28;20938;-71
2021/01/24 02:36:58;;;;;;;0.70;0.70;;;2.10;99.90;;;;;;5030178;28;20464;-72
2021/01/24 02:39:24;;;;;;;0.90;0.67;;;2.10;99.90;;;;;;5030179;28;20924;-68
2021/01/24 02:41:50;;;;;;;1.07;0.70;;;2.10;99.90;;;;;;5030505;28;20444;-68
2021/01/24 02:44:16;;;;;;;0.70;0.70;;;2.10;99.90;;;;;;5030166;28;20205;-68
2021/01/24 02:46:43;;;;;;;0.50;0.50;;;2.10;99.90;;;;;;5029373;28;20496;-69
2021/01/24 02:49:10;;;;;;;0.60;0.57;;;2.10;99.90;;;;;;5029422;28;20851;-69
2021/01/24 02:51:37;;;;;;;1.47;0.70;;;2.10;99.90;;;;;;5030066;28;20467;-69
2021/01/24 02:54:04;;;;;;;0.93;0.87;;;2.00;99.90;;;;;;5029845;28;20428;-68
2021/01/24 02:56:29;;;;;;;1.00;0.90;;;2.00;99.90;;;;;;5029954;28;20425;-69
2021/01/24 02:58:56;;;;;;;4.87;0.90;;;2.00;99.90;;;;;;5030100;28;20491;-68
2021/01/24 03:01:21;;;;;;;2.13;1.27;;;2.00;99.90;;;;;;5030145;28;20210;-72
2021/01/24 03:03:47;;;;;;;1.50;1.40;;;2.00;99.90;;;;;;5029788;28;20468;-68
2021/01/24 03:06:13;;;;;;;1.50;1.40;;;2.00;99.90;;;;;;5029386;28;20629;-69
2021/01/24 03:08:40;;;;;;;1.57;1.47;;;1.90;99.90;;;;;;5029892;28;20186;-68
2021/01/24 03:11:09;;;;;;;3.53;2.20;;;1.80;99.90;;;;;;5030184;28;20900;-69
2021/01/24 03:14:11;;;;;;;1.10;1.03;;;1.80;99.90;;;;;;5029851;28;20960;-69
2021/01/24 03:16:38;;;;;;;1.80;1.70;;;1.90;99.90;;;;;;5021115;28;20467;-70
2021/01/24 03:19:07;;;;;;;1.80;1.67;;;1.80;99.90;;;;;;5029383;28;20425;-68
2021/01/24 03:21:35;;;;;;;2.63;1.70;;;1.80;99.90;;;;;;5029441;28;20528;-69
2021/01/24 03:24:02;;;;;;;1.60;1.50;;;1.80;99.90;;;;;;5027958;28;20472;-69
2021/01/24 03:26:27;;;;;;;2.40;1.97;;;1.80;99.90;;;;;;5029298;28;20519;-69
2021/01/24 03:28:53;;;;;;;2.20;1.83;;;1.80;99.90;;;;;;5029393;28;20523;-69
2021/01/24 03:31:18;;;;;;;1.90;1.67;;;1.80;99.90;;;;;;5029816;28;20202;-69
2021/01/24 03:33:44;;;;;;;2.57;2.10;;;1.70;99.90;;;;;;5029490;28;20182;-68
2021/01/24 03:36:10;;;;;;;2.57;2.10;;;1.60;99.90;;;;;;5029396;28;20225;-69
2021/01/24 03:38:35;;;;;;;2.53;2.07;;;1.60;99.90;;;;;;5029197;28;20340;-70
2021/01/24 03:41:01;;;;;;;2.57;2.30;;;1.60;99.90;;;;;;5028946;28;20193;-70
2021/01/24 03:43:26;;;;;;;2.40;2.17;;;1.60;99.90;;;;;;5029553;28;20206;-69
2021/01/24 03:45:52;;;;;;;3.00;2.70;;;1.50;99.90;;;;;;5029188;28;20557;-69
2021/01/24 03:48:17;;;;;;;4.30;3.27;;;1.50;99.90;;;;;;5029307;28;20233;-69
2021/01/24 03:50:43;;;;;;;6.43;3.10;;;1.50;99.90;;;;;;5029521;28;20257;-69
2021/01/24 03:53:08;;;;;;;3.50;3.00;;;1.50;99.90;;;;;;5029372;28;20400;-69
2021/01/24 03:55:34;;;;;;;3.10;2.80;;;1.50;99.90;;;;;;5022041;28;20178;-69
2021/01/24 03:57:59;;;;;;;3.37;3.10;;;1.40;99.90;;;;;;5029502;28;20197;-69
2021/01/24 04:00:25;;;;;;;5.83;3.03;;;1.40;99.90;;;;;;5029699;28;20258;-69
2021/01/24 04:02:50;;;;;;;5.30;2.80;;;1.30;99.90;;;;;;5029683;28;20193;-67
2021/01/24 04:05:16;;;;;;;3.30;2.73;;;1.30;99.90;;;;;;5028906;28;20194;-70
2021/01/24 04:07:41;;;;;;;3.53;2.90;;;1.30;99.90;;;;;;5029077;28;20218;-69
2021/01/24 04:10:08;;;;;;;5.73;3.20;;;1.30;99.90;;;;;;5029390;28;20268;-67
2021/01/24 04:12:34;;;;;;;3.60;2.80;;;1.30;99.90;;;;;;5029148;28;20208;-70
2021/01/24 04:15:00;;;;;;;3.73;3.00;;;1.40;99.90;;;;;;5005120;28;20439;-69
2021/01/24 04:17:26;;;;;;;6.70;2.70;;;1.30;99.90;;;;;;5030359;28;20587;-69
2021/01/24 04:19:52;;;;;;;4.27;3.23;;;1.40;99.90;;;;;;5032787;28;20968;-68
2021/01/24 04:22:17;;;;;;;3.03;2.73;;;1.40;99.90;;;;;;5032677;28;20444;-68
2021/01/24 04:24:43;;;;;;;3.70;3.00;;;1.40;99.90;;;;;;5032852;28;20257;-67
2021/01/24 04:27:08;;;;;;;4.10;3.40;;;1.30;99.90;;;;;;5032437;28;20240;-69
2021/01/24 04:29:34;;;;;;;3.50;3.20;;;1.30;99.90;;;;;;5032979;28;20178;-71
2021/01/24 04:32:00;;;;;;;3.50;3.00;;;1.30;99.90;;;;;;5015045;28;20209;-67
2021/01/24 04:34:25;;;;;;;3.10;2.63;;;1.20;99.90;;;;;;5033076;28;20193;-68
2021/01/24 04:36:51;;;;;;;4.83;3.80;;;1.20;99.90;;;;;;5014147;28;20967;-68
2021/01/24 04:39:16;;;;;;;7.33;4.07;;;1.10;99.90;;;;;;5032575;28;20231;-69
2021/01/24 04:41:44;;;;;;;4.27;3.30;;;1.10;99.90;;;;;;5031810;28;20860;-70
2021/01/24 04:44:09;;;;;;;3.80;2.70;;;1.10;99.90;;;;;;5032549;28;20256;-71
2021/01/24 04:46:35;;;;;;;2.67;2.37;;;1.00;99.90;;;;;;5032110;28;20484;-69
2021/01/24 04:49:02;;;;;;;3.30;2.50;;;0.90;99.90;;;;;;5032389;28;20186;-71
2021/01/24 04:51:28;;;;;;;3.67;2.57;;;0.90;99.90;;;;;;5032020;28;20555;-70
2021/01/24 04:53:54;;;;;;;6.00;3.00;;;0.90;99.90;;;;;;5031482;28;20623;-71
2021/01/24 04:56:20;;;;;;;6.57;2.30;;;0.90;99.90;;;;;;5031560;28;20324;-71
2021/01/24 04:58:46;;;;;;;3.73;2.80;;;0.90;99.90;;;;;;5032187;28;20249;-71
2021/01/24 05:01:14;;;;;;;3.00;2.63;;;0.90;99.90;;;;;;5031692;28;20448;-72
2021/01/24 05:03:39;;;;;;;3.20;2.70;;;0.90;99.90;;;;;;5031599;28;20832;-71
2021/01/24 05:06:05;;;;;;;3.40;3.10;;;0.90;99.90;;;;;;5031619;28;20445;-71
2021/01/24 05:08:31;;;;;;;3.73;2.97;;;0.90;99.90;;;;;;5031781;28;20248;-71
2021/01/24 05:11:07;;;;;;;6.13;3.07;;;0.90;99.90;;;;;;5031830;28;20186;-70
2021/01/24 05:13:33;;;;;;;3.70;3.27;;;0.90;99.90;;;;;;5031711;28;20438;-70
2021/01/24 05:15:59;;;;;;;4.43;2.87;;;0.90;99.90;;;;;;5031107;28;20440;-71
2021/01/24 05:18:26;;;;;;;4.10;2.80;;;0.90;99.90;;;;;;5031558;28;20488;-70
2021/01/24 05:20:52;;;;;;;3.37;3.00;;;0.90;99.90;;;;;;5031467;28;20461;-71
2021/01/24 05:23:22;;;;;;;4.27;2.83;;;0.90;99.90;;;;;;5031580;28;20428;-70
2021/01/24 05:25:48;;;;;;;5.43;3.37;;;0.90;99.90;;;;;;5031096;28;20487;-70
2021/01/24 05:28:22;;;;;;;6.27;4.03;;;0.90;99.90;;;;;;5031377;28;20449;-70
2021/01/24 05:30:49;;;;;;;6.20;4.03;;;0.80;99.90;;;;;;5027824;28;20562;-70
2021/01/24 05:33:19;;;;;;;4.47;3.37;;;0.80;99.90;;;;;;5031552;28;20603;-69
2021/01/24 05:35:51;;;;;;;4.40;4.00;;;0.70;99.90;;;;;;5031063;28;20528;-70
2021/01/24 05:38:31;;;;;;;5.93;3.90;;;0.70;99.90;;;;;;5030220;28;20453;-71
2021/01/24 05:41:00;;;;;;;5.93;3.73;;;0.70;99.90;;;;;;5031344;28;20778;-69
2021/01/24 05:43:27;;;;;;;5.40;4.73;;;0.60;99.90;;;;;;5013061;28;20974;-70
2021/01/24 05:45:53;;;;;;;5.87;4.60;;;0.50;99.90;;;;;;5030871;28;20437;-70
2021/01/24 05:48:19;;;;;;;5.47;4.43;;;0.50;99.90;;;;;;5031050;28;20759;-70
2021/01/24 05:50:45;;;;;;;4.97;3.90;;;0.50;99.90;;;;;;5031088;28;20425;-71
2021/01/24 05:53:14;;;;;;;5.03;4.30;;;0.50;99.90;;;;;;5031110;28;20880;-70
2021/01/24 05:55:42;;;;;;;5.20;3.37;;;0.50;99.90;;;;;;5030528;28;22450;-70
2021/01/24 05:58:22;;;;;;;4.50;3.30;;;0.40;99.90;;;;;;5030944;28;20440;-71
2021/01/24 06:00:49;;;;;;;4.03;3.60;;;0.40;99.90;;;;;;5030950;28;20472;-69
2021/01/24 06:03:16;;;;;;;6.67;4.73;;;0.40;99.90;;;;;;5030760;28;20428;-70
2021/01/24 06:05:42;;;;;;;5.20;4.03;;;0.40;99.90;;;;;;5030309;28;20498;-69
2021/01/24 06:08:14;;;;;;;6.53;3.77;;;0.50;99.90;;;;;;5030664;28;20468;-71
2021/01/24 06:10:40;;;;;;;4.43;4.03;;;0.50;99.90;;;;;;5030910;28;20432;-70
2021/01/24 06:13:08;;;;;;;6.53;4.43;;;0.50;99.90;;;;;;5030416;28;20456;-70
2021/01/24 06:15:37;;;;;;;6.90;4.00;;;0.60;99.90;;;;;;5030002;28;20424;-72
2021/01/24 06:18:11;;;;;;;4.67;3.93;;;0.50;99.90;;;;;;5030757;28;20484;-71
2021/01/24 06:20:44;;;;;;;6.07;5.13;;;0.50;99.90;;;;;;5030721;28;20423;-70
2021/01/24 06:23:21;;;;;;;5.63;4.00;;;0.50;99.90;;;;;;5030627;28;20872;-70
2021/01/24 06:25:49;;;;;;;5.50;4.43;;;0.40;99.90;;;;;;5029772;28;20520;-71
2021/01/24 06:28:23;;;;;;;5.80;4.40;;;0.40;99.90;;;;;;5030855;28;21042;-72
2021/01/24 06:30:50;;;;;;;5.80;4.80;;;0.40;99.90;;;;;;5030531;28;20436;-71
2021/01/24 06:33:20;;;;;;;7.83;4.67;;;0.50;99.90;;;;;;5030093;28;20456;-70
2021/01/24 06:35:51;;;;;;;8.90;5.30;;;0.50;99.90;;;;;;5030168;28;20437;-71
2021/01/24 06:38:30;;;;;;;5.13;4.33;;;0.50;99.90;;;;;;5030174;28;20449;-71
2021/01/24 06:40:57;;;;;;;5.23;4.13;;;0.50;99.90;;;;;;5029527;28;20785;-70
2021/01/24 06:43:37;;;;;;;7.43;4.50;;;0.50;99.90;;;;;;5030638;28;20435;-70
2021/01/24 06:46:04;;;;;;;9.80;5.13;;;0.50;99.90;;;;;;5030318;28;20439;-71
2021/01/24 06:48:50;;;;;;;4.47;3.60;;;0.50;99.90;;;;;;5030210;28;20789;-70
2021/01/24 06:51:39;;;;;;;5.83;4.47;;;0.50;99.90;;;;;;5030264;28;20926;-70
2021/01/24 06:54:27;;;;;;;6.90;4.00;;;0.50;99.90;;;;;;5030513;28;20747;-70
2021/01/24 06:56:52;;;;;;;3.80;3.47;;;0.50;99.90;;;;;;5029794;28;20480;-70
2021/01/24 06:59:30;;;;;;;5.47;3.90;;;0.60;99.90;;;;;;5030023;28;20464;-71
2021/01/24 07:02:33;;;;;;;6.10;4.23;;;0.60;99.90;;;;;;5030369;28;20677;-71
2021/01/24 07:05:08;;;;;;;4.00;3.53;;;0.70;99.90;;;;;;4995689;28;20428;-71
2021/01/24 07:07:42;;;;;;;5.37;3.20;;;0.70;99.90;;;;;;5029762;28;20547;-71
2021/01/24 07:10:37;;;;;;;5.00;4.23;;;0.70;99.90;;;;;;5030062;28;20431;-71
2021/01/24 07:13:29;;;;;;;4.50;4.10;;;0.70;99.90;;;;;;5022297;28;20809;-70
2021/01/24 07:15:59;;;;;;;5.70;4.70;;;0.70;99.90;;;;;;5029334;28;20429;-71
2021/01/24 07:18:35;;;;;;;5.10;4.37;;;0.60;99.90;;;;;;5029506;28;20806;-71
2021/01/24 07:21:01;;;;;;;4.73;4.23;;;0.60;99.90;;;;;;5021037;28;20494;-71
2021/01/24 07:23:28;;;;;;;4.60;4.03;;;0.50;99.90;;;;;;5029890;28;20429;-71
2021/01/24 07:25:55;;;;;;;4.60;4.20;;;0.50;99.90;;;;;;5029561;28;20190;-69
2021/01/24 07:28:22;;;;;;;4.90;3.93;;;0.50;99.90;;;;;;5030001;28;20475;-71
2021/01/24 07:30:48;;;;;;;5.40;4.17;;;0.50;99.90;;;;;;5029657;28;20433;-70
2021/01/24 07:33:14;;;;;;;4.30;3.70;;;0.50;99.90;;;;;;5029642;28;20460;-70
2021/01/24 07:35:39;;;;;;;6.07;4.77;;;0.60;99.90;;;;;;5029513;28;20217;-70
2021/01/24 07:38:05;;;;;;;4.23;3.30;;;0.60;99.90;;;;;;5029658;28;20492;-69
2021/01/24 07:40:30;;;;;;;6.00;3.30;;;0.70;99.90;;;;;;5029963;28;20491;-69
2021/01/24 07:42:57;;;;;;;3.43;2.60;;;0.70;99.90;;;;;;5029981;28;20189;-70
2021/01/24 07:45:24;;;;;;;3.77;2.97;;;0.80;99.90;;;;;;5029295;28;20236;-70
2021/01/24 07:47:49;;;;;;;4.77;3.90;;;0.90;99.90;;;;;;5029547;28;21122;-70
2021/01/24 07:50:15;;;;;;;3.63;2.97;;;1.10;99.90;;;;;;5012053;28;20466;-70
2021/01/24 07:52:41;;;;;;;3.60;3.30;;;1.40;99.90;;;;;;5032414;28;20568;-70
2021/01/24 07:55:08;;;;;;;4.57;3.17;;;1.80;99.90;;;;;;5033315;28;20231;-72
2021/01/24 07:57:34;;;;;;;11.97;3.50;;;2.10;99.90;;;;;;5031806;28;21007;-71
2021/01/24 08:00:03;;;;;;;7.37;3.10;;;2.50;99.90;;;;;;5033438;28;20792;-71
2021/01/24 08:02:29;;;;;;;6.53;3.50;;;2.80;99.90;;;;;;5033179;28;20574;-71
2021/01/24 08:04:55;;;;;;;4.67;3.10;;;2.90;99.90;;;;;;5032680;28;20423;-71
2021/01/24 08:07:21;;;;;;;2.90;2.50;;;2.90;99.90;;;;;;5032717;28;20471;-70
2021/01/24 08:09:47;;;;;;;3.10;2.53;;;3.30;99.90;;;;;;5033160;28;20435;-70
2021/01/24 08:12:13;;;;;;;5.17;3.30;;;3.80;99.90;;;;;;5032832;28;20645;-71
2021/01/24 08:14:39;;;;;;;5.03;2.30;;;3.90;99.90;;;;;;5033164;28;20447;-70
2021/01/24 08:17:08;;;;;;;3.03;2.37;;;3.70;99.90;;;;;;5032442;28;20216;-70
2021/01/24 08:19:34;;;;;;;2.40;2.20;;;3.80;99.90;;;;;;5032746;28;20451;-70
2021/01/24 08:22:00;;;;;;;3.37;2.10;;;3.60;99.90;;;;;;5033054;28;20429;-70
2021/01/24 08:24:26;;;;;;;4.27;2.47;;;3.80;99.90;;;;;;5032838;28;20829;-70
2021/01/24 08:26:52;;;;;;;7.00;3.00;;;3.80;99.90;;;;;;5032604;28;20226;-67
2021/01/24 08:29:18;;;;;;;3.90;2.53;;;3.50;99.90;;;;;;5032664;28;20277;-69
2021/01/24 08:31:45;;;;;;;7.53;2.90;;;3.50;99.90;;;;;;5014750;28;20547;-68
2021/01/24 08:34:12;;;;;;;2.63;2.43;;;3.80;99.90;;;;;;5032876;28;20166;-67
2021/01/24 08:36:38;;;;;;;4.60;2.63;;;4.30;99.90;;;;;;5032111;28;20465;-68
2021/01/24 08:39:04;;;;;;;3.00;2.70;;;4.60;99.90;;;;;;5032541;28;20754;-69
2021/01/24 08:41:32;;;;;;;4.47;2.97;;;4.80;99.90;;;;;;5032449;28;20495;-70
2021/01/24 08:44:02;;;;;;;5.40;4.20;;;5.00;99.90;;;;;;5032580;28;20432;-69
2021/01/24 08:46:35;;;;;;;3.83;3.00;;;5.70;99.90;;;;;;5032168;28;20432;-69
2021/01/24 08:49:08;;;;;;;3.17;2.50;;;6.30;99.90;;;;;;5032661;28;20468;-69
2021/01/24 08:52:03;;;;;;;6.63;2.83;;;6.40;99.90;;;;;;5032354;28;20452;-69
2021/01/24 08:54:34;;;;;;;3.20;2.90;;;6.40;99.90;;;;;;5026659;28;20440;-69
2021/01/24 08:57:18;;;;;;;3.10;2.63;;;6.40;99.90;;;;;;5031799;28;20503;-69
2021/01/24 08:59:49;;;;;;;6.77;2.60;;;6.70;99.90;;;;;;5016899;28;20437;-69
2021/01/24 09:02:15;;;;;;;3.87;3.10;;;5.40;99.90;;;;;;5031988;28;20425;-69
2021/01/24 09:04:47;;;;;;;5.23;3.13;;;4.30;99.90;;;;;;5031799;28;20441;-69
2021/01/24 09:07:15;;;;;;;6.00;2.63;;;3.60;99.90;;;;;;5031722;28;20518;-69
2021/01/24 09:09:47;;;;;;;3.30;2.70;;;3.20;99.90;;;;;;5015968;28;20437;-68
2021/01/24 09:12:15;;;;;;;3.30;2.50;;;2.90;99.90;;;;;;5026674;28;21015;-69
2021/01/24 09:14:41;;;;;;;7.30;4.37;;;2.70;99.90;;;;;;5023795;28;20502;-69
2021/01/24 09:17:12;;;;;;;3.20;2.80;;;2.80;99.90;;;;;;5027495;28;20867;-69
2021/01/24 09:19:39;;;;;;;4.90;2.90;;;2.80;99.90;;;;;;5031278;28;20860;-69
2021/01/24 09:22:06;;;;;;;4.03;3.63;;;2.80;99.90;;;;;;5028909;28;20444;-68
2021/01/24 09:24:32;;;;;;;4.27;2.47;;;2.80;99.90;;;;;;5021827;28;20485;-69
2021/01/24 09:26:57;;;;;;;3.67;3.37;;;2.80;99.90;;;;;;5031122;28;20445;-68
2021/01/24 09:29:23;;;;;;;4.23;3.30;;;2.80;99.90;;;;;;5030497;28;20292;-68
2021/01/24 09:31:49;;;;;;;5.50;3.00;;;2.70;99.90;;;;;;5030023;28;20626;-69
2021/01/24 09:34:14;;;;;;;7.23;4.37;;;2.70;99.90;;;;;;5030287;28;20186;-68
2021/01/24 09:36:40;;;;;;;5.83;4.10;;;2.60;99.90;;;;;;5020406;28;20223;-69
2021/01/24 09:39:06;;;;;;;4.30;3.10;;;2.40;99.90;;;;;;5030658;28;20672;-68
2021/01/24 09:41:32;;;;;;;3.53;3.03;;;2.20;99.90;;;;;;5029203;28;20273;-69
2021/01/24 09:43:58;;;;;;;6.20;3.30;;;2.10;99.90;;;;;;5031406;28;20821;-68
2021/01/24 09:46:24;;;;;;;4.60;3.43;;;2.10;99.90;;;;;;5030441;28;20268;-69
2021/01/24 09:48:49;;;;;;;3.90;3.20;;;2.20;99.90;;;;;;5031188;28;20486;-68
2021/01/24 09:51:15;;;;;;;3.60;3.30;;;2.30;99.90;;;;;;5028960;28;20185;-68
2021/01/24 09:53:40;;;;;;;3.70;3.33;;;2.40;99.90;;;;;;5021049;28;20268;-68
2021/01/24 09:56:07;;;;;;;6.00;3.83;;;2.40;99.90;;;;;;5030040;28;20212;-68
2021/01/24 09:58:35;;;;;;;4.30;3.53;;;2.50;99.90;;;;;;5012705;28;20344;-68
2021/01/24 10:01:01;;;;;;;5.07;3.70;;;2.80;99.90;;;;;;5031369;28;20455;-67
2021/01/24 10:03:26;;;;;;;3.60;3.03;;;3.00;99.90;;;;;;5030893;28;20611;-68
2021/01/24 10:05:52;;;;;;;4.33;3.00;;;3.10;99.90;;;;;;5030790;28;20186;-68
2021/01/24 10:08:18;;;;;;;3.73;3.43;;;3.30;99.90;;;;;;5030815;28;20214;-68
2021/01/24 10:10:47;;;;;;;5.23;2.80;;;3.50;99.90;;;;;;5030867;28;20189;-68
2021/01/24 10:13:13;;;;;;;5.47;2.57;;;3.60;99.90;;;;;;5030929;28;20511;-68
2021/01/24 10:15:40;;;;;;;3.70;3.37;;;3.50;99.90;;;;;;5028981;28;20519;-68
2021/01/24 10:18:06;;;;;;;4.27;3.87;;;3.60;99.90;;;;;;5030375;28;20511;-68
2021/01/24 10:20:32;;;;;;;3.73;3.37;;;3.70;99.90;;;;;;5030403;28;20433;-68
2021/01/24 10:22:57;;;;;;;3.27;2.97;;;3.70;99.90;;;;;;5030638;28;20185;-68
2021/01/24 10:25:24;;;;;;;3.07;2.77;;;3.60;99.90;;;;;;5030146;28;20429;-68
2021/01/24 10:27:49;;;;;;;2.87;2.67;;;3.60;99.90;;;;;;5030408;28;20202;-68
2021/01/24 10:30:15;;;;;;;2.70;2.50;;;3.60;99.90;;;;;;5030508;28;20436;-68
2021/01/24 10:32:41;;;;;;;3.03;2.50;;;3.60;99.90;;;;;;5030296;28;20251;-68
2021/01/24 10:35:07;;;;;;;2.90;2.47;;;3.60;99.90;;;;;;5030460;28;20483;-68
2021/01/24 10:37:33;;;;;;;3.90;2.47;;;3.50;99.90;;;;;;5029627;28;20698;-68
2021/01/24 10:40:00;;;;;;;3.70;2.47;;;3.40;99.90;;;;;;5030472;28;20532;-68
2021/01/24 10:42:25;;;;;;;2.17;1.97;;;3.40;99.90;;;;;;5030264;28;20448;-68
2021/01/24 10:44:51;;;;;;;4.00;2.60;;;3.40;99.90;;;;;;5030102;28;20432;-68
2021/01/24 10:47:16;;;;;;;2.50;1.87;;;3.40;99.90;;;;;;5030085;28;20764;-68
2021/01/24 10:49:42;;;;;;;4.07;2.53;;;3.40;99.90;;;;;;5029718;28;20210;-68
2021/01/24 10:52:07;;;;;;;2.70;2.30;;;3.70;99.90;;;;;;5030106;28;20202;-68
2021/01/24 10:54:37;;;;;;;4.33;2.13;;;4.10;99.90;;;;;;5012333;28;20184;-68
2021/01/24 10:57:03;;;;;;;2.67;2.00;;;4.50;99.90;;;;;;5029723;28;20209;-68
2021/01/24 10:59:28;;;;;;;3.13;2.23;;;4.90;99.90;;;;;;5030017;28;20804;-68
2021/01/24 11:01:54;;;;;;;2.80;1.87;;;5.30;99.90;;;;;;5029872;28;20437;-68
2021/01/24 11:04:20;;;;;;;1.93;1.83;;;5.50;99.90;;;;;;5030026;28;20193;-68
2021/01/24 11:06:46;;;;;;;4.03;2.53;;;6.50;99.90;;;;;;5029452;28;20290;-68
2021/01/24 11:09:12;;;;;;;3.10;2.50;;;7.60;99.90;;;;;;5029781;28;20859;-68
2021/01/24 11:11:37;;;;;;;2.27;2.07;;;8.70;99.90;;;;;;5030128;28;20468;-68
2021/01/24 11:14:03;;;;;;;2.43;1.97;;;9.50;98.60;;;;;;5029854;28;20182;-68
2021/01/24 11:16:28;;;;;;;2.20;2.00;;;11.10;95.50;;;;;;5029850;28;20669;-69
2021/01/24 11:18:53;;;;;;;2.43;1.63;;;11.40;92.20;;;;;;5029945;28;20589;-68
2021/01/24 11:21:19;;;;;;;3.00;2.37;;;9.30;94.10;;;;;;5029887;28;20181;-68
2021/01/24 11:23:45;;;;;;;3.10;1.70;;;9.70;96.50;;;;;;5029681;28;20186;-68
2021/01/24 11:26:10;;;;;;;2.50;2.30;;;11.90;92.70;;;;;;5030457;28;20213;-68
2021/01/24 11:28:36;;;;;;;2.27;2.07;;;12.70;85.70;;;;;;5034009;28;20186;-66
2021/01/24 11:31:01;;;;;;;1.80;1.70;;;13.50;77.60;;;;;;5033487;28;20645;-66
2021/01/24 11:33:27;;;;;;;2.70;2.50;;;13.70;74.90;;;;;;5033702;28;20206;-68
2021/01/24 11:35:52;;;;;;;2.40;1.87;;;12.40;75.20;;;;;;5033285;28;20171;-68
2021/01/24 11:38:18;;;;;;;3.83;3.27;;;10.10;83.50;;;;;;5033948;28;20733;-68
2021/01/24 11:40:43;;;;;;;10.60;5.70;;;8.30;90.60;;;;;;5033800;28;20174;-68
2021/01/24 11:43:09;;;;;;;4.80;3.70;;;7.40;93.70;;;;;;5033832;28;20544;-68
2021/01/24 11:45:35;;;;;;;3.03;2.73;;;7.30;96.00;;;;;;5032779;28;20182;-68
2021/01/24 11:48:01;;;;;;;2.67;2.10;;;6.60;98.90;;;;;;5033548;28;20208;-68
2021/01/24 11:50:27;;;;;;;2.50;2.23;;;6.60;99.90;;;;;;5033634;28;20695;-68
2021/01/24 11:52:52;;;;;;;2.93;2.20;;;6.00;99.90;;;;;;5033829;28;20594;-68
2021/01/24 11:55:18;;;;;;;2.13;1.80;;;6.00;99.90;;;;;;5033177;28;20178;-68
2021/01/24 11:57:43;;;;;;;3.00;2.43;;;6.10;99.90;;;;;;5033736;28;20202;-68
2021/01/24 12:00:10;;;;;;;2.37;2.17;;;6.60;99.90;;;;;;5033578;28;20167;-68
2021/01/24 12:02:35;;;;;;;1.90;1.80;;;7.00;99.90;;;;;;5033236;28;20176;-68
2021/01/24 12:05:01;;;;;;;2.10;1.90;;;6.70;99.90;;;;;;5033251;28;20429;-68
2021/01/24 12:07:26;;;;;;;3.00;1.50;;;6.20;99.90;;;;;;5033100;28;20305;-68
2021/01/24 12:09:55;;;;;;;3.07;2.03;;;5.90;99.90;;;;;;5033074;28;20213;-68
2021/01/24 12:12:20;;;;;;;2.43;2.17;;;6.00;99.90;;;;;;5018307;28;20240;-68
2021/01/24 12:14:46;;;;;;;2.67;2.07;;;5.90;99.90;;;;;;5032866;28;20464;-68
2021/01/24 12:17:11;;;;;;;1.83;1.63;;;5.90;99.90;;;;;;5032813;28;20201;-68
2021/01/24 12:19:37;;;;;;;2.10;1.90;;;5.60;99.90;;;;;;5033229;28;20728;-68
2021/01/24 12:22:02;;;;;;;2.30;2.10;;;5.30;99.90;;;;;;5032944;28;20665;-68
2021/01/24 12:24:28;;;;;;;3.03;2.40;;;5.00;99.90;;;;;;5032806;28;20201;-68
2021/01/24 12:26:53;;;;;;;2.10;1.80;;;4.90;99.90;;;;;;5032350;28;20206;-68
2021/01/24 12:29:19;;;;;;;2.13;1.67;;;4.90;99.90;;;;;;5032647;28;20188;-68
2021/01/24 12:31:45;;;;;;;3.60;1.70;;;5.00;99.90;;;;;;5032893;28;20853;-68
2021/01/24 12:34:11;;;;;;;6.70;2.30;;;5.00;99.90;;;;;;5032645;28;20261;-68
2021/01/24 12:36:36;;;;;;;2.57;1.93;;;5.10;99.90;;;;;;5032427;28;20283;-68
2021/01/24 12:39:03;;;;;;;3.27;2.97;;;5.00;99.90;;;;;;5031740;28;20437;-68
2021/01/24 12:41:29;;;;;;;2.40;2.20;;;4.80;99.90;;;;;;5032817;28;20183;-68
2021/01/24 12:43:54;;;;;;;2.23;2.10;;;4.50;99.90;;;;;;5032291;28;20427;-68
2021/01/24 12:46:20;;;;;;;2.70;1.87;;;4.40;99.90;;;;;;5031699;28;20193;-68
2021/01/24 12:48:46;;;;;;;2.37;1.90;;;4.60;99.90;;;;;;5032533;28;20174;-68
2021/01/24 12:51:11;;;;;;;2.53;2.00;;;4.80;99.90;;;;;;5032419;28;20185;-68
2021/01/24 12:53:37;;;;;;;3.23;2.00;;;5.40;99.90;;;;;;5032210;28;20428;-68
2021/01/24 12:56:03;;;;;;;2.20;2.03;;;6.40;99.90;;;;;;5014218;28;20236;-68
2021/01/24 12:58:29;;;;;;;2.40;2.20;;;7.50;99.90;;;;;;5031929;28;20618;-68
2021/01/24 13:00:55;;;;;;;3.43;2.20;;;8.60;97.60;;;;;;5032362;28;20265;-68